ADDS METAR Data INFO
IDs: Format: Raw Decoded Include TAF

Data at: 1757 UTC 15 Dec 2017

K46D 151755Z AUTO 18007KT 10SM SCT032 SCT040 00/M02 A2968 RMK AO2
K46D 151735Z AUTO 18007KT 10SM FEW080 M00/M02 A2970 RMK AO2
K46D 151715Z AUTO 19008KT 10SM SCT080 M00/M02 A2972 RMK AO2
K46D 151655Z AUTO 18006KT 10SM BKN080 BKN090 M01/M03 A2973 RMK AO2
K46D 151635Z AUTO 18005KT 10SM FEW055 SCT080 M01/M03 A2974 RMK AO2
K46D 151615Z AUTO 18007KT 10SM FEW060 M01/M03 A2973 RMK AO2
K46D 151555Z AUTO 17006KT 10SM SCT090 M01/M03 A2974 RMK AO2
K46D 151535Z AUTO 19007KT 10SM SCT021 BKN090 M02/M03 A2975 RMK AO2
K46D 151515Z AUTO 20006KT 10SM SCT020 M02/M03 A2976 RMK AO2
K46D 151455Z AUTO 18004KT 10SM BKN020 BKN065 BKN075 M02/M04 A2976 RMK AO2
K46D 151435Z AUTO 20004KT 10SM FEW021 SCT070 M02/M03 A2977 RMK AO2
K46D 151415Z AUTO 21005KT 10SM SCT046 M02/M03 A2978 RMK AO2
K46D 151355Z AUTO 23003KT 10SM BKN046 M02/M03 A2980 RMK AO2
K46D 151335Z AUTO 19004KT 10SM FEW046 SCT075 M02/M03 A2980 RMK AO2
K46D 151315Z AUTO 19004KT 10SM FEW046 BKN075 M02/M03 A2981 RMK AO2
K46D 151255Z AUTO 00000KT 10SM SCT028 BKN075 M02/M03 A2982 RMK AO2
K46D 151235Z AUTO 17004KT 10SM BKN026 M03/M03 A2982 RMK AO2
K46D 151215Z AUTO 19005KT 10SM SCT028 M03/M03 A2982 RMK AO2
K46D 151155Z AUTO 18006KT 10SM OVC027 M03/M03 A2983 RMK AO2
K46D 151135Z AUTO 18005KT 10SM OVC025 M03/M03 A2984 RMK AO2
K46D 151115Z AUTO 17006KT 10SM OVC027 M03/M03 A2986 RMK AO2
K46D 151055Z AUTO 16006KT 10SM OVC028 M03/M04 A2986 RMK AO2
K46D 151035Z AUTO 16006KT 10SM SCT003 OVC029 M03/M04 A2987 RMK AO2
K46D 151015Z AUTO 15006KT 10SM OVC003 M03/M04 A2987 RMK AO2
K46D 150955Z AUTO 15006KT 10SM OVC003 M03/M04 A2988 RMK AO2
K46D 150935Z AUTO 14007KT 10SM OVC003 M03/M04 A2989 RMK AO2
K46D 150915Z AUTO 14008KT 10SM OVC003 M03/M04 A2991 RMK AO2
K46D 150855Z AUTO 13007KT 6SM -UP OVC003 M03/M04 A2991 RMK AO2
K46D 150835Z AUTO 13006KT 10SM OVC004 M03/M03 A2992 RMK AO2
K46D 150815Z AUTO 13006KT 10SM SCT005 BKN011 OVC018 M02/M03 A2992 RMK AO2
K46D 150755Z AUTO 00000KT 10SM BKN012 OVC018 M02/M03 A2993 RMK AO2
K46D 150735Z AUTO 00000KT 10SM BKN015 BKN020 OVC029 M02/M03 A2993 RMK AO2
K46D 150715Z AUTO 00000KT 10SM BKN015 BKN021 OVC027 M02/M03 A2993 RMK AO2
K46D 150655Z AUTO 03005KT 10SM BKN014 OVC020 M02/M03 A2994 RMK AO2
K46D 150635Z AUTO 03006KT 10SM OVC014 M02/M03 A2995 RMK AO2
K46D 150615Z AUTO 02008KT 10SM BKN011 OVC018 M02/M03 A2996 RMK AO2
K46D 150555Z AUTO 34007KT 10SM BKN018 OVC030 M01/M03 A2996 RMK AO2
K46D 150535Z AUTO 32008KT 10SM SCT020 OVC030 M01/M03 A2996 RMK AO2
K46D 150515Z AUTO 31009KT 10SM OVC030 M01/M03 A2997 RMK AO2
K46D 150455Z AUTO 31011KT 10SM OVC031 M01/M03 A2998 RMK AO2
K46D 150435Z AUTO 32012KT 10SM OVC031 M01/M03 A2999 RMK AO2
K46D 150415Z AUTO 31012KT 10SM BKN033 M00/M03 A2998 RMK AO2
K46D 150355Z AUTO 31013G18KT 10SM OVC035 M00/M03 A2998 RMK AO2
K46D 150335Z AUTO 30012KT 10SM SCT030 OVC036 M00/M02 A2999 RMK AO2
K46D 150315Z AUTO 31014KT 10SM OVC030 M00/M02 A2999 RMK AO2
K46D 150255Z AUTO 32014G19KT 10SM BKN034 M00/M02 A3000 RMK AO2
K46D 150235Z AUTO 32013G19KT 10SM FEW017 FEW023 OVC035 M00/M02 A3001 RMK AO2
K46D 150215Z AUTO 31019G24KT 10SM SCT017 OVC035 M00/M02 A3001 RMK AO2
K46D 150155Z AUTO 31018KT 10SM SCT018 SCT025 OVC036 00/M02 A3001 RMK AO2
K46D 150135Z AUTO 29012KT 10SM FEW023 BKN035 OVC040 M00/M01 A3001 RMK AO2
K46D 150115Z AUTO 29009KT 10SM OVC040 M00/M01 A3002 RMK AO2
K46D 150055Z AUTO 29009KT 10SM FEW010 SCT017 BKN023 M00/M01 A3002 RMK AO2
K46D 150035Z AUTO 28010KT 6SM BR FEW011 SCT019 OVC023 M00/M01 A3003 RMK AO2
K46D 150015Z AUTO 29008KT 4SM -UP BKN012 BKN020 OVC025 M01/M01 A3004 RMK AO2
K46D 142355Z AUTO 29010KT 7SM FEW013 SCT021 BKN028 M01/M02 A3005 RMK AO2
K46D 142335Z AUTO 29011KT 10SM BKN028 BKN032 OVC045 M01/M02 A3005 RMK AO2
K46D 142315Z AUTO 29008KT 10SM FEW024 FEW028 OVC044 M01/M03 A3005 RMK AO2
K46D 142255Z AUTO 29009KT 10SM FEW028 OVC043 M01/M03 A3006 RMK AO2
K46D 142235Z AUTO 31011G16KT 10SM SCT028 OVC043 M01/M03 A3006 RMK AO2
K46D 142215Z AUTO 30011KT 10SM FEW020 OVC027 M01/M03 A3006 RMK AO2
K46D 142155Z AUTO 30014KT 10SM BKN027 BKN034 OVC045 M01/M03 A3007 RMK AO2
K46D 142135Z AUTO 30012KT 10SM OVC044 M01/M03 A3007 RMK AO2
K46D 142115Z AUTO 29014KT 10SM FEW022 FEW028 OVC044 M01/M03 A3005 RMK AO2
K46D 142055Z AUTO 31017G23KT 10SM -SN SCT024 BKN030 OVC045 M01/M03 A3007 RMK AO2
K46D 142035Z AUTO 31015G21KT 10SM FEW019 BKN024 OVC047 M01/M03 A3006 RMK AO2
K46D 142015Z AUTO 31015KT 8SM -SN BKN021 OVC027 M01/M03 A3007 RMK AO2
K46D 141955Z AUTO 31016KT 10SM OVC020 M01/M04 A3007 RMK AO2
K46D 141935Z AUTO 30012KT 10SM BKN017 OVC023 M01/M03 A3008 RMK AO2
K46D 141915Z AUTO 32010KT 10SM OVC016 M02/M04 A3008 RMK AO2
K46D 141855Z AUTO 33009KT 10SM -UP BKN018 OVC024 M02/M04 A3009 RMK AO2
K46D 141835Z AUTO 34008G13KT 10SM SCT017 OVC025 M02/M04 A3010 RMK AO2
K46D 141815Z AUTO 33011KT 10SM SCT013 BKN019 OVC025 M02/M04 A3011 RMK AO2
K46D 141755Z AUTO 33007KT 10SM BKN012 BKN021 OVC027 M03/M04 A3011 RMK AO2
K46D 141735Z AUTO 35006KT 10SM FEW007 BKN010 OVC025 M03/M04 A3010 RMK AO2
K46D 141715Z AUTO 35006KT 10SM BKN010 OVC030 M03/M04 A3010 RMK AO2
K46D 141655Z AUTO 35008KT 10SM BKN009 BKN014 OVC033 M04/M05 A3010 RMK AO2
K46D 141635Z AUTO 36012KT 10SM SCT007 BKN010 OVC029 M04/M05 A3010 RMK AO2
K46D 141615Z AUTO 01008KT 7SM OVC006 M04/M04 A3008 RMK AO2
K46D 141555Z AUTO 01009KT 2SM -UP BKN006 OVC015 M04/M04 A3009 RMK AO2
K46D 141535Z AUTO 03010KT 6SM BR BKN006 OVC015 M03/M04 A3008 RMK AO2
K46D 141515Z AUTO 02016KT 8SM -UP BKN006 BKN012 OVC016 M03/M03 A3006 RMK AO2
K46D 141455Z AUTO 35011G16KT 8SM -UP OVC009 M01/M02 A3005 RMK AO2
K46D 141435Z AUTO 34009G15KT 10SM BKN010 OVC015 M01/M02 A3003 RMK AO2
K46D 141415Z AUTO 33013KT 10SM SCT015 BKN024 OVC030 M01/M02 A3002 RMK AO2
K46D 141355Z AUTO 33010G15KT 10SM BKN026 OVC031 M01/M02 A3001 RMK AO2
K46D 141335Z AUTO 33010KT 10SM OVC030 M01/M02 A3001 RMK AO2
K46D 141315Z AUTO 32008KT 10SM OVC028 M01/M02 A3000 RMK AO2
K46D 141255Z AUTO 30005KT 10SM OVC030 M02/M02 A2999 RMK AO2
K46D 141235Z AUTO 00000KT 10SM SCT024 BKN031 OVC080 M02/M03 A2999 RMK AO2
K46D 141215Z AUTO 00000KT 10SM BKN023 OVC028 M02/M03 A2998 RMK AO2
K46D 141155Z AUTO 00000KT 9SM OVC022 M02/M03 A2997 RMK AO2
K46D 141135Z AUTO 00000KT 9SM OVC023 M02/M03 A2997 RMK AO2
K46D 141115Z AUTO 00000KT 10SM -SN BKN022 OVC026 M03/M03 A2996 RMK AO2
K46D 141055Z AUTO 15004KT 8SM -SN OVC022 M03/M03 A2996 RMK AO2
K46D 141035Z AUTO 15004KT 8SM -SN OVC023 M03/M03 A2996 RMK AO2
K46D 141015Z AUTO 15004KT 10SM OVC026 M03/M03 A2996 RMK AO2
K46D 140955Z AUTO 15004KT 10SM OVC029 M03/M03 A2996 RMK AO2
K46D 140935Z AUTO 14004KT 8SM -UP M03/M03 A2996 RMK AO2
K46D 140915Z AUTO 15006KT 10SM OVC031 M03/M03 A2996 RMK AO2
K46D 140855Z AUTO 16004KT 10SM FEW006 OVC031 M03/M04 A2997 RMK AO2
K46D 140835Z AUTO 14006KT 10SM FEW006 OVC030 M03/M04 A2996 RMK AO2
K46D 140815Z AUTO 14005KT 10SM BKN006 OVC029 M03/M04 A2996 RMK AO2
K46D 140755Z AUTO 11004KT 10SM OVC005 M03/M03 A2996 RMK AO2
K46D 140735Z AUTO 09003KT 10SM OVC005 M03/M03 A2996 RMK AO2
K46D 140715Z AUTO 00000KT 10SM OVC005 M03/M03 A2996 RMK AO2
K46D 140655Z AUTO 00000KT 10SM M03/M04 A2997 RMK AO2
K46D 140635Z AUTO 00000KT 10SM OVC006 M03/M04 A2997 RMK AO2
K46D 140615Z AUTO 00000KT 10SM SCT007 SCT015 OVC031 M03/M04 A2997 RMK AO2